createdAt,value
2022-10-18T00:02:29.566Z,13.20
2022-10-18T00:07:33.504Z,15.43
2022-10-18T00:12:39.363Z,12.32
2022-10-18T00:17:43.134Z,9.75
2022-10-18T00:22:46.819Z,12.20
2022-10-18T00:27:52.547Z,10.55
2022-10-18T00:32:56.429Z,10.90
2022-10-18T00:38:00.036Z,14.93
2022-10-18T00:43:05.107Z,15.05
2022-10-18T00:48:08.791Z,12.98
2022-10-18T00:53:17.194Z,16.95
2022-10-18T00:58:22.255Z,15.00
2022-10-18T01:03:25.878Z,16.05
2022-10-18T01:08:41.373Z,17.42
2022-10-18T01:13:57.875Z,22.63
2022-10-18T01:19:05.292Z,17.75
2022-10-18T01:24:47.299Z,18.45
2022-10-18T01:30:13.304Z,18.88
2022-10-18T01:35:21.297Z,16.13
2022-10-18T01:40:26.029Z,16.65
2022-10-18T01:45:30.362Z,17.92
2022-10-18T01:50:36.479Z,20.15
2022-10-18T01:55:44.285Z,18.73
2022-10-18T02:00:53.675Z,16.23
2022-10-18T02:06:06.012Z,25.15
2022-10-18T02:11:12.445Z,17.02
2022-10-18T02:16:20.474Z,17.10
2022-10-18T02:21:28.199Z,17.45
2022-10-18T02:26:32.043Z,20.10
2022-10-18T02:31:40.774Z,21.52
2022-10-18T02:36:48.737Z,23.77
2022-10-18T02:41:52.386Z,14.52
2022-10-18T02:46:56.519Z,20.20
2022-10-18T02:52:01.581Z,17.67
2022-10-18T02:57:05.370Z,16.50
2022-10-18T03:02:09.131Z,20.92
2022-10-18T03:07:14.235Z,18.40
2022-10-18T03:12:18.249Z,17.25
2022-10-18T03:17:21.968Z,19.50
2022-10-18T03:32:36.532Z,19.08
2022-10-18T03:37:41.547Z,13.00
2022-10-18T03:42:45.219Z,16.67
2022-10-18T03:47:48.877Z,16.88
2022-10-18T03:52:54.278Z,17.58
2022-10-18T03:57:58.068Z,21.90
2022-10-18T04:03:01.831Z,17.55
2022-10-18T04:08:07.001Z,15.55
2022-10-18T04:13:10.826Z,14.50
2022-10-18T04:18:14.477Z,15.73
2022-10-18T04:23:19.545Z,18.17
2022-10-18T04:28:23.231Z,18.08
2022-10-18T04:33:26.917Z,18.17
2022-10-18T04:38:31.915Z,16.23
2022-10-18T04:43:35.619Z,13.52
2022-10-18T04:48:40.278Z,14.15
2022-10-18T04:53:45.540Z,21.38
2022-10-18T04:58:49.288Z,16.85
2022-10-18T05:03:54.251Z,15.10
2022-10-18T05:08:59.235Z,16.35
2022-10-18T05:14:02.967Z,15.95
2022-10-18T05:19:07.295Z,18.48
2022-10-18T05:24:13.249Z,19.08
2022-10-18T05:29:17.050Z,16.55
2022-10-18T05:34:21.951Z,20.05
2022-10-18T05:39:27.069Z,18.40
2022-10-18T05:44:30.803Z,22.92
2022-10-18T05:49:34.524Z,20.23
2022-10-18T05:54:39.494Z,18.85
2022-10-18T05:59:43.150Z,19.45
2022-10-18T06:04:46.862Z,18.38
2022-10-18T06:09:51.854Z,24.48
2022-10-18T06:14:55.590Z,19.65
2022-10-18T06:19:59.201Z,19.25
2022-10-18T06:25:04.163Z,15.23
2022-10-18T06:30:09.417Z,19.33
2022-10-18T06:35:13.105Z,17.33
2022-10-18T06:40:18.278Z,17.05
2022-10-18T06:45:22.173Z,17.63
2022-10-18T06:50:25.973Z,18.00
2022-10-18T06:55:32.299Z,17.92
2022-10-18T07:00:35.913Z,20.20
2022-10-18T07:05:39.591Z,17.85
2022-10-18T07:10:51.609Z,18.75
2022-10-18T07:16:03.330Z,21.88
2022-10-18T07:21:08.789Z,21.27
2022-10-18T07:26:16.104Z,23.75
2022-10-18T07:31:19.761Z,23.05
2022-10-18T07:36:24.573Z,18.70
2022-10-18T07:41:31.904Z,19.25
2022-10-18T07:46:35.697Z,12.57
2022-10-18T07:51:39.377Z,12.68
2022-10-18T07:56:44.476Z,17.42
2022-10-18T08:01:48.199Z,13.05
2022-10-18T08:06:51.920Z,14.60
2022-10-18T08:11:56.975Z,12.57
2022-10-18T08:17:02.169Z,15.32
2022-10-18T08:22:07.225Z,13.10
2022-10-18T08:27:13.944Z,20.02
2022-10-18T08:32:18.351Z,14.75
2022-10-18T08:37:27.114Z,17.58
2022-10-18T08:42:54.818Z,15.52
2022-10-18T08:47:59.258Z,11.15
2022-10-18T08:53:13.696Z,12.95
2022-10-18T08:58:21.856Z,16.38
2022-10-18T09:03:42.691Z,16.17
2022-10-18T09:09:01.656Z,16.75
2022-10-18T09:14:25.568Z,18.98
2022-10-18T09:19:55.900Z,7.25
2022-10-18T09:25:08.496Z,9.85
2022-10-18T09:30:21.899Z,11.65
2022-10-18T09:35:28.411Z,10.48
2022-10-18T09:40:37.407Z,6.10
2022-10-18T09:45:44.981Z,12.70
2022-10-18T09:50:53.856Z,16.90
2022-10-18T09:56:01.936Z,9.20
2022-10-18T10:01:09.286Z,12.38
2022-10-18T10:06:26.486Z,16.80
2022-10-18T10:11:33.945Z,11.30
2022-10-18T10:16:49.336Z,9.80
2022-10-18T10:21:56.832Z,14.63
2022-10-18T10:27:04.076Z,12.88
2022-10-18T10:32:14.995Z,15.75
2022-10-18T10:37:34.417Z,8.32
2022-10-18T10:42:50.277Z,5.55
2022-10-18T10:48:02.577Z,9.20
2022-10-18T10:53:06.378Z,7.03
2022-10-18T10:58:19.220Z,15.00
2022-10-18T11:03:29.854Z,5.97
2022-10-18T11:08:41.230Z,6.55
2022-10-18T11:13:57.026Z,12.48
2022-10-18T11:19:30.245Z,11.68
2022-10-18T11:24:36.571Z,7.93
2022-10-18T11:29:50.348Z,5.75
2022-10-18T11:35:05.019Z,5.45
2022-10-18T11:40:27.606Z,8.20
2022-10-18T11:45:45.127Z,4.88
2022-10-18T11:51:03.570Z,9.32
2022-10-18T11:56:18.392Z,9.02
2022-10-18T12:01:28.711Z,6.05
2022-10-18T12:06:38.506Z,7.43
2022-10-18T12:11:48.747Z,8.15
2022-10-18T12:17:20.274Z,8.65
2022-10-18T12:22:29.496Z,8.05
2022-10-18T12:27:40.735Z,8.25
2022-10-18T12:32:56.518Z,4.72
2022-10-18T12:38:21.152Z,9.38
2022-10-18T12:43:27.231Z,5.70
2022-10-18T12:48:38.672Z,10.03
2022-10-18T12:53:46.028Z,3.70
2022-10-18T12:58:49.878Z,4.70
2022-10-18T13:03:56.212Z,3.85
2022-10-18T13:09:21.814Z,6.57
2022-10-18T13:14:53.640Z,5.95
2022-10-18T13:20:27.221Z,8.05
2022-10-18T13:25:42.076Z,1.88
2022-10-18T13:30:53.629Z,2.25
2022-10-18T13:35:59.382Z,4.43
2022-10-18T13:41:07.119Z,5.93
2022-10-18T13:46:10.838Z,3.55
2022-10-18T13:51:51.183Z,3.67
2022-10-18T13:57:12.352Z,3.58
2022-10-18T14:02:51.731Z,4.47
2022-10-18T14:08:04.741Z,3.25
2022-10-18T14:13:22.568Z,6.38
2022-10-18T14:18:31.833Z,5.00
2022-10-18T14:23:41.172Z,3.63
2022-10-18T14:28:59.578Z,5.63
2022-10-18T14:34:04.450Z,9.30
2022-10-18T14:39:17.989Z,3.92
2022-10-18T14:44:27.357Z,4.63
2022-10-18T14:49:32.243Z,3.35
2022-10-18T14:54:39.275Z,6.82
2022-10-18T14:59:51.582Z,1.80
2022-10-18T15:05:00.258Z,5.35
2022-10-18T15:10:06.340Z,4.45
2022-10-18T15:15:19.393Z,8.10
2022-10-18T15:20:28.356Z,4.70
2022-10-18T15:25:36.142Z,7.82
2022-10-18T15:30:43.087Z,4.00
2022-10-18T15:35:46.928Z,5.45
2022-10-18T15:40:51.027Z,4.97
2022-10-18T15:46:00.026Z,8.07
2022-10-18T15:51:11.092Z,7.18
2022-10-18T15:56:36.464Z,9.07
2022-10-18T16:01:45.357Z,6.53
2022-10-18T16:06:49.068Z,9.30
2022-10-18T16:11:56.725Z,13.13
2022-10-18T16:17:05.570Z,5.60
2022-10-18T16:27:19.513Z,2.22
2022-10-18T16:32:24.566Z,4.65
2022-10-18T16:37:28.402Z,4.32
2022-10-18T16:42:32.293Z,6.85
2022-10-18T16:47:37.642Z,4.60
2022-10-18T16:52:41.669Z,8.23
2022-10-18T16:57:45.389Z,3.15
2022-10-18T17:02:51.057Z,2.50
2022-10-18T17:07:58.100Z,7.15
2022-10-18T17:13:02.213Z,2.97
2022-10-18T17:18:07.457Z,2.10
2022-10-18T17:23:13.334Z,3.55
2022-10-18T17:28:19.161Z,7.72
2022-10-18T17:33:24.286Z,5.43
2022-10-18T17:38:28.185Z,3.58
2022-10-18T17:43:31.938Z,2.75
2022-10-18T17:48:37.099Z,8.15
2022-10-18T17:53:41.076Z,10.30
2022-10-18T17:58:45.677Z,6.05
2022-10-18T18:03:52.215Z,4.93
2022-10-18T18:08:55.949Z,4.07
2022-10-18T18:14:00.531Z,2.65
2022-10-18T18:19:09.664Z,4.18
2022-10-18T18:24:15.673Z,3.75
2022-10-18T18:29:19.651Z,5.70
2022-10-18T18:34:25.229Z,3.92
2022-10-18T18:39:30.627Z,5.18
2022-10-18T18:44:35.231Z,2.65
2022-10-18T18:49:40.441Z,5.07
2022-10-18T18:54:44.344Z,4.32
2022-10-18T18:59:48.069Z,8.90
2022-10-18T19:04:53.313Z,8.77
2022-10-18T19:09:56.986Z,9.32
2022-10-18T19:15:00.828Z,5.40
2022-10-18T19:20:06.943Z,2.67
2022-10-18T19:25:10.900Z,6.90
2022-10-18T19:30:15.669Z,7.65
2022-10-18T19:35:21.153Z,8.95
2022-10-18T19:40:24.937Z,5.50
2022-10-18T19:45:28.601Z,10.32
2022-10-18T19:50:33.672Z,7.95
2022-10-18T19:55:37.361Z,7.80
2022-10-18T20:00:41.011Z,6.18
2022-10-18T20:05:49.209Z,4.93
2022-10-18T20:11:03.843Z,7.90
2022-10-18T20:16:10.265Z,9.73
2022-10-18T20:21:16.755Z,7.57
2022-10-18T20:26:21.632Z,7.75
2022-10-18T20:31:27.493Z,10.30
2022-10-18T20:36:33.863Z,9.45
2022-10-18T20:41:40.928Z,8.83
2022-10-18T20:46:45.709Z,11.63
2022-10-18T20:51:50.867Z,11.93
2022-10-18T20:56:54.553Z,10.18
2022-10-18T21:02:00.519Z,12.48
2022-10-18T21:07:06.128Z,11.00
2022-10-18T21:17:13.450Z,8.48
2022-10-18T21:22:21.802Z,5.15
2022-10-18T21:27:26.151Z,6.65
2022-10-18T21:32:30.136Z,6.88
2022-10-18T21:37:35.385Z,6.45
2022-10-18T21:42:39.053Z,7.28
2022-10-18T21:47:42.809Z,6.32
2022-10-18T21:52:47.944Z,8.18
2022-10-18T21:57:51.653Z,4.35
2022-10-18T22:03:07.940Z,9.50
2022-10-18T22:08:13.184Z,7.03
2022-10-18T22:13:16.953Z,10.45
2022-10-18T22:18:20.651Z,11.15
2022-10-18T22:23:25.796Z,6.50
2022-10-18T22:28:32.358Z,7.60
2022-10-18T22:38:42.122Z,6.82
2022-10-18T22:43:47.622Z,5.43
2022-10-18T22:48:51.326Z,7.93
2022-10-18T22:53:56.377Z,13.63
2022-10-18T22:59:00.091Z,8.52
2022-10-18T23:04:05.449Z,15.88
2022-10-18T23:09:12.341Z,10.63
2022-10-18T23:14:15.960Z,4.85
2022-10-18T23:19:19.690Z,8.48
2022-10-18T23:24:25.411Z,8.85
2022-10-18T23:29:29.053Z,7.65
2022-10-18T23:34:32.712Z,9.82
2022-10-18T23:39:37.751Z,4.22
2022-10-18T23:44:41.367Z,9.85
2022-10-18T23:49:45.036Z,6.97
2022-10-18T23:54:50.322Z,9.45
2022-10-18T23:59:54.057Z,6.78
